Time;durP1;ratioP1;P1;durP2;ratioP2;P2;SDS_P1;SDS_P2;PMS_P1;PMS_P2;Temp;Humidity;BMP_temperature;BMP_pressure;BME280_temperature;BME280_humidity;BME280_pressure;Samples;Min_cycle;Max_cycle;Signal;HPM_P1;HPM_P2
2021/09/07 00:01:36;;;;;;;12.7;10.5;;;;;;;6.4;100;99393.69;;;;
2021/09/07 00:11:35;;;;;;;14.9;9.7;;;;;;;6.36;100;99392.59;;;;
2021/09/07 00:21:33;;;;;;;11.9;9.7;;;;;;;6.26;100;99392.54;;;;
2021/09/07 00:31:32;;;;;;;14.6;10.4;;;;;;;6.11;100;99382.55;;;;
2021/09/07 00:41:30;;;;;;;11.2;10;;;;;;;6.03;100;99372.34;;;;
2021/09/07 00:51:29;;;;;;;12.1;9.4;;;;;;;6.03;100;99367.81;;;;
2021/09/07 01:01:27;;;;;;;14.8;9.5;;;;;;;5.97;100;99368.04;;;;
2021/09/07 01:11:26;;;;;;;15.1;8.4;;;;;;;5.9;100;99372.8;;;;
2021/09/07 01:21:24;;;;;;;15.1;10.7;;;;;;;5.9;100;99368.23;;;;
2021/09/07 01:31:22;;;;;;;10.4;7.8;;;;;;;5.96;100;99353.05;;;;
2021/09/07 01:41:21;;;;;;;13.4;10.3;;;;;;;5.91;100;99361.02;;;;
2021/09/07 01:51:20;;;;;;;13.2;10.4;;;;;;;5.92;100;99358.1;;;;
2021/09/07 02:11:16;;;;;;;12.8;8.4;;;;;;;6.13;100;99353.67;;;;
2021/09/07 02:21:15;;;;;;;10.2;9.2;;;;;;;6.2;100;99342.73;;;;
2021/09/07 02:31:13;;;;;;;14.8;10.1;;;;;;;6.36;100;99342.53;;;;
2021/09/07 02:41:11;;;;;;;14;9.1;;;;;;;6.51;100;99342.61;;;;
2021/09/07 02:51:10;;;;;;;13.3;9.2;;;;;;;6.56;100;99341.8;;;;
2021/09/07 03:01:08;;;;;;;12.2;8.5;;;;;;;6.63;100;99346.94;;;;
2021/09/07 03:11:07;;;;;;;9.6;8.6;;;;;;;6.74;100;99357.4;;;;
2021/09/07 03:21:05;;;;;;;12.4;8.8;;;;;;;6.76;100;99346.44;;;;
2021/09/07 03:31:04;;;;;;;12.8;10.2;;;;;;;6.8;100;99353.69;;;;
2021/09/07 03:41:02;;;;;;;12.3;8.7;;;;;;;6.8;100;99350.2;;;;
2021/09/07 03:51:01;;;;;;;11.1;8.5;;;;;;;6.88;100;99339.76;;;;
2021/09/07 04:00:59;;;;;;;13.2;7.3;;;;;;;6.97;100;99337.38;;;;
2021/09/07 04:10:58;;;;;;;12.1;8;;;;;;;7.07;100;99338.2;;;;
2021/09/07 04:20:56;;;;;;;11.8;7.9;;;;;;;7.02;100;99324.78;;;;
2021/09/07 04:30:56;;;;;;;13.1;9.9;;;;;;;7.09;100;99341.41;;;;
2021/09/07 04:40:56;;;;;;;14.9;9.3;;;;;;;7.2;100;99342.23;;;;
2021/09/07 04:50:56;;;;;;;15.1;9.5;;;;;;;7.25;100;99362.88;;;;
2021/09/07 05:00:51;;;;;;;11;8.3;;;;;;;7.32;100;99356.2;;;;
2021/09/07 05:10:49;;;;;;;13.6;8.7;;;;;;;7.88;100;99351.58;;;;
2021/09/07 05:20:48;;;;;;;10;8.8;;;;;;;8.43;100;99349.88;;;;
2021/09/07 05:30:47;;;;;;;18.8;9.9;;;;;;;8.87;100;99350.73;;;;
2021/09/07 05:40:46;;;;;;;12.2;7.7;;;;;;;9.36;100;99355.27;;;;
2021/09/07 05:50:44;;;;;;;12.5;8.5;;;;;;;9.96;100;99362.8;;;;
2021/09/07 06:00:43;;;;;;;13.2;8.1;;;;;;;10.43;100;99350.48;;;;
2021/09/07 06:10:42;;;;;;;12.9;7.8;;;;;;;11.2;100;99354.59;;;;
2021/09/07 06:20:41;;;;;;;16.7;9.3;;;;;;;11.94;100;99358.28;;;;
2021/09/07 06:30:41;;;;;;;13.5;7.9;;;;;;;12.44;100;99367.33;;;;
2021/09/07 06:40:41;;;;;;;11.4;8.3;;;;;;;12.24;100;99375.83;;;;
2021/09/07 06:50:39;;;;;;;22.5;9.3;;;;;;;12.68;100;99376.03;;;;
2021/09/07 07:00:38;;;;;;;17.9;7.8;;;;;;;12.75;100;99367.51;;;;
2021/09/07 07:10:38;;;;;;;11.1;7.7;;;;;;;12.92;100;99371.2;;;;
2021/09/07 07:20:37;;;;;;;11.1;8.4;;;;;;;13.15;100;99366.68;;;;
2021/09/07 07:30:36;;;;;;;13.6;8.5;;;;;;;13.52;100;99377.17;;;;
2021/09/07 07:40:36;;;;;;;10.8;7.5;;;;;;;14.25;100;99383.2;;;;
2021/09/07 07:50:36;;;;;;;11.7;7.5;;;;;;;14.84;100;99390.8;;;;
2021/09/07 08:00:35;;;;;;;16.4;9;;;;;;;15.53;100;99407.2;;;;
2021/09/07 08:10:34;;;;;;;13;8;;;;;;;16.36;100;99403.06;;;;
2021/09/07 08:20:34;;;;;;;13.6;7.4;;;;;;;17.52;100;99403.39;;;;
2021/09/07 08:30:34;;;;;;;15.9;7.9;;;;;;;18.99;100;99409.67;;;;
2021/09/07 08:40:34;;;;;;;20;9.2;;;;;;;19.48;100;99409.62;;;;
2021/09/07 08:50:34;;;;;;;15.6;11.7;;;;;;;20.16;100;99407.64;;;;
2021/09/07 09:00:35;;;;;;;11.5;6.2;;;;;;;20.15;100;99406.05;;;;
2021/09/07 09:10:35;;;;;;;9.6;6.3;;;;;;;20.98;100;99424.2;;;;
2021/09/07 09:20:35;;;;;;;9.2;5.9;;;;;;;21.06;100;99415.8;;;;
2021/09/07 09:30:36;;;;;;;6.5;4.9;;;;;;;21.19;100;99421.98;;;;
2021/09/07 09:40:36;;;;;;;9.9;5.8;;;;;;;21.52;100;99416.03;;;;
2021/09/07 09:50:40;;;;;;;9.5;6.6;;;;;;;21.24;100;99410.72;;;;
2021/09/07 10:00:37;;;;;;;7.8;5.7;;;;;;;21.47;100;99400.67;;;;
2021/09/07 10:10:37;;;;;;;7.9;5.2;;;;;;;21.58;100;99400.9;;;;
2021/09/07 10:20:38;;;;;;;9.8;6.2;;;;;;;21.7;100;99392.51;;;;
2021/09/07 10:30:38;;;;;;;10.5;5.7;;;;;;;21.71;100;99388.62;;;;
2021/09/07 10:40:48;;;;;;;9.5;6.1;;;;;;;21.67;100;99387.75;;;;
2021/09/07 11:00:40;;;;;;;8.7;4.6;;;;;;;22.21;100;99375.88;;;;
2021/09/07 11:10:41;;;;;;;7.8;5.5;;;;;;;22.39;93.16016;99369.51;;;;
2021/09/07 11:20:41;;;;;;;10.1;6.1;;;;;;;22.66;98.56641;99372.31;;;;
2021/09/07 11:30:42;;;;;;;8.9;5.1;;;;;;;22.97;90.58789;99369.3;;;;
2021/09/07 11:40:42;;;;;;;8.1;4.7;;;;;;;23.44;94.68262;99363.27;;;;
2021/09/07 11:50:44;;;;;;;8.1;6.1;;;;;;;23.59;81.42676;99353.24;;;;
2021/09/07 12:00:44;;;;;;;9.1;6;;;;;;;23.39;80.68457;99350.63;;;;
2021/09/07 12:10:45;;;;;;;13.8;7.2;;;;;;;23.23;84.75977;99341.75;;;;
2021/09/07 12:20:45;;;;;;;13.5;6.5;;;;;;;23.49;86.65137;99335.45;;;;
2021/09/07 12:30:46;;;;;;;9.2;5.5;;;;;;;23.99;86.3877;99323;;;;
2021/09/07 12:40:47;;;;;;;9.4;6;;;;;;;23.9;80.32227;99317.81;;;;
2021/09/07 12:50:48;;;;;;;12.2;6.7;;;;;;;23.89;76.92676;99318.97;;;;
2021/09/07 13:00:49;;;;;;;7.6;5.7;;;;;;;24.18;78.47656;99311.02;;;;
2021/09/07 13:10:49;;;;;;;10.2;6;;;;;;;24.43;76.76172;99314.78;;;;
2021/09/07 13:20:50;;;;;;;18.2;7.2;;;;;;;25.03;73.7373;99315.19;;;;
2021/09/07 13:30:51;;;;;;;8.6;5.8;;;;;;;25.15;67.63379;99308.56;;;;
2021/09/07 13:40:52;;;;;;;11.5;5.9;;;;;;;24.64;68.59863;99298.4;;;;
2021/09/07 13:50:52;;;;;;;12.1;6.1;;;;;;;23.53;70.74609;99295.01;;;;
2021/09/07 14:00:53;;;;;;;8.8;5.7;;;;;;;23.41;75.55566;99279.53;;;;
2021/09/07 14:10:58;;;;;;;20.3;11.2;;;;;;;23.64;74.35938;99270.36;;;;
2021/09/07 14:20:54;;;;;;;30.7;17.1;;;;;;;23.97;75.01953;99275.78;;;;
2021/09/07 14:30:55;;;;;;;9;5.8;;;;;;;24.14;71.87891;99274.38;;;;
2021/09/07 14:40:56;;;;;;;13.2;8.1;;;;;;;24.05;71.24902;99269.94;;;;
2021/09/07 14:50:56;;;;;;;11;6.5;;;;;;;24.29;71.28516;99276.88;;;;
2021/09/07 15:00:58;;;;;;;11.2;6;;;;;;;24.29;70.70215;99281.59;;;;
2021/09/07 15:10:58;;;;;;;10.4;6.4;;;;;;;25.7;67.33008;99287.89;;;;
2021/09/07 15:20:58;;;;;;;8.1;6.1;;;;;;;25.06;67.04688;99286.06;;;;
2021/09/07 15:30:59;;;;;;;10.6;6.5;;;;;;;25.88;65.74121;99277.67;;;;
2021/09/07 15:41:01;;;;;;;13;5.9;;;;;;;26.99;61.77441;99279.2;;;;
2021/09/07 15:51:01;;;;;;;12.9;7.7;;;;;;;26.17;63.94043;99278.49;;;;
2021/09/07 16:01:02;;;;;;;15.3;13.6;;;;;;;25.09;67.22656;99285.28;;;;
2021/09/07 16:11:03;;;;;;;9.4;7.3;;;;;;;26.34;69.24316;99274.97;;;;
2021/09/07 16:21:04;;;;;;;10.5;7.6;;;;;;;26.01;70.05957;99275.3;;;;
2021/09/07 16:31:05;;;;;;;8.7;6.9;;;;;;;24.58;73.30273;99272.34;;;;
2021/09/07 16:41:06;;;;;;;13;6.9;;;;;;;23.01;82.56348;99257.41;;;;
2021/09/07 16:51:07;;;;;;;10.4;6.6;;;;;;;21.56;90.01465;99257.8;;;;
2021/09/07 17:01:07;;;;;;;11;6.8;;;;;;;20.39;94.92676;99255.33;;;;
2021/09/07 17:11:07;;;;;;;11.7;8;;;;;;;19.37;100;99252.66;;;;
2021/09/07 17:21:07;;;;;;;11;8.1;;;;;;;18.56;100;99259.3;;;;
2021/09/07 17:31:14;;;;;;;11.4;8.4;;;;;;;17.89;100;99268.01;;;;
2021/09/07 17:51:07;;;;;;;17;15.2;;;;;;;16.95;100;99277.88;;;;
2021/09/07 18:01:08;;;;;;;45;32.6;;;;;;;16.63;100;99290.27;;;;
2021/09/07 18:11:07;;;;;;;37.1;30.9;;;;;;;16.25;100;99301.16;;;;
2021/09/07 18:21:06;;;;;;;34.3;23.7;;;;;;;16.01;100;99298.23;;;;
2021/09/07 18:31:06;;;;;;;66.6;50.4;;;;;;;15.63;100;99302.81;;;;
2021/09/07 18:41:05;;;;;;;84.9;66.4;;;;;;;15.32;100;99319.28;;;;
2021/09/07 18:51:07;;;;;;;55.5;48.4;;;;;;;15.03;100;99311.77;;;;
2021/09/07 19:01:04;;;;;;;65.8;49.1;;;;;;;14.67;100;99311.26;;;;
2021/09/07 19:11:04;;;;;;;58.6;40.5;;;;;;;14.35;100;99317.88;;;;
2021/09/07 19:21:03;;;;;;;39;27.9;;;;;;;14.1;100;99317.42;;;;
2021/09/07 19:31:04;;;;;;;25.7;16.5;;;;;;;14.03;100;99324.41;;;;
2021/09/07 19:41:02;;;;;;;17.9;14.1;;;;;;;13.87;100;99318.6;;;;
2021/09/07 19:51:01;;;;;;;17;12.2;;;;;;;13.65;100;99313.2;;;;
2021/09/07 20:01:01;;;;;;;14;10.6;;;;;;;13.47;100;99315;;;;
2021/09/07 20:11:00;;;;;;;14.7;11.8;;;;;;;13.31;100;99330.02;;;;
2021/09/07 20:20:59;;;;;;;22.5;14.2;;;;;;;13.07;100;99322.16;;;;
2021/09/07 20:30:59;;;;;;;20;16.3;;;;;;;12.89;100;99328.52;;;;
2021/09/07 20:40:58;;;;;;;18.3;15.6;;;;;;;12.68;100;99340.07;;;;
2021/09/07 20:50:57;;;;;;;18.7;14.1;;;;;;;12.52;100;99340.41;;;;
2021/09/07 21:00:56;;;;;;;19;15.2;;;;;;;12.35;100;99342.91;;;;
2021/09/07 21:10:55;;;;;;;22.1;15.3;;;;;;;12.26;100;99344.69;;;;
2021/09/07 21:20:54;;;;;;;19.2;13.1;;;;;;;12.08;100;99348.27;;;;
2021/09/07 21:30:53;;;;;;;12.3;10.8;;;;;;;11.95;100;99352.56;;;;
2021/09/07 21:40:52;;;;;;;11.9;9.7;;;;;;;11.78;100;99355.03;;;;
2021/09/07 21:50:52;;;;;;;18.4;10.9;;;;;;;11.66;100;99367.38;;;;
2021/09/07 22:00:52;;;;;;;20.3;13.6;;;;;;;11.67;100;99361.66;;;;
2021/09/07 22:10:50;;;;;;;16.7;15;;;;;;;11.67;100;99360.86;;;;
2021/09/07 22:20:49;;;;;;;16.7;13.1;;;;;;;11.63;100;99354.47;;;;
2021/09/07 22:30:48;;;;;;;18.4;14.1;;;;;;;11.48;100;99360.91;;;;
2021/09/07 22:40:47;;;;;;;17.2;12.4;;;;;;;11.36;100;99361.35;;;;
2021/09/07 22:50:46;;;;;;;21;14.2;;;;;;;11.27;100;99367.7;;;;
2021/09/07 23:00:45;;;;;;;23.5;17.8;;;;;;;11.35;100;99367.06;;;;
2021/09/07 23:10:44;;;;;;;20.8;17.2;;;;;;;11.31;100;99366.84;;;;
2021/09/07 23:20:43;;;;;;;24.1;20.3;;;;;;;11.28;100;99372.02;;;;
2021/09/07 23:30:42;;;;;;;17.3;14.6;;;;;;;11.21;100;99372.36;;;;
2021/09/07 23:40:41;;;;;;;21.1;14.8;;;;;;;11.05;100;99363.7;;;;
2021/09/07 23:50:40;;;;;;;18.6;14.7;;;;;;;11.01;100;99351.88;;;;
